FAIR

Pretoria Irene Airport

South Africa
METAR FAIR 220653Z 25005KT CAVOK 18/12 Q1027
Observed Flight Rules
May-22 @ 06:53 UTC (20 hours ago) Visual Flight Rules
Wind Visibility Clouds
250° at 5 knots 10,000+ meters
  • Clear skies
Temperatures Readings
Current 18°C / 64°F
Dewpoint 12°C / 54°F
Humidity 68%
Altimeter 30.32" Hg
Pressure 1027 hPa
Elevation 1500
METAR FAIR 220653Z 25005KT CAVOK 18/12 Q1027
Observed Flight Rules
May-22 @ 06:53 UTC
(20 hours ago)
VFR
Wind Visibility
250° at 5 knots 10,000+ meters
Clouds
  • Clear skies
Temperature Dewpoint
18°C / 64°F 12°C / 54°F
Humidity Altimeter Pressure
68% 30.32" Hg 1027 hPa